This is the latest recevied weather packets stored in our database for station/object SR5NLK-1. If no packets are shown the sender has not sent any weather packets the latest 10 day(s).
| Time | Temp. | Humidity | Pressure | Rain* | Wind** | Luminosity | Snow |
|---|---|---|---|---|---|---|---|
| 1777450215 | 7.22° C | 48% | 1040.7 hPa | 0 mm | - | - | - |
| 1777449915 | 7.78° C | 47% | 1065.8 hPa | 0 mm | - | - | - |
| 1777449615 | 7.78° C | 46% | 1053.2 hPa | 0 mm | - | - | - |
| 1777449315 | 8.33° C | 47% | 1031.1 hPa | 0 mm | - | - | - |
| 1777449022 | 8.33° C | - | - | 10.16 mm | - | - | - |
| 1777449015 | 8.33° C | 47% | 1059.5 hPa | 0 mm | - | - | - |
| 1777448714 | 8.33° C | 49% | 1046.9 hPa | 0 mm | - | - | - |
| 1777448415 | 7.78° C | 50% | 1059.5 hPa | 0 mm | - | - | - |
| 1777448115 | 6.67° C | 53% | 1046.9 hPa | 0 mm | - | - | - |
| 1777447815 | 6.67° C | 51% | 1040.6 hPa | 0 mm | - | - | - |
| 1777447515 | 7.22° C | 49% | 1053.2 hPa | 0 mm | - | - | - |
| 1777447215 | 7.22° C | 48% | 1068.9 hPa | 0 mm | - | - | - |
| 1777446915 | 7.22° C | 49% | 1053.2 hPa | 0 mm | - | - | - |
| 1777446734 | 7.22° C | 50% | 1031.2 hPa | 0 mm | - | - | - |
| 1777446615 | 6.67° C | 50% | 1075.2 hPa | 0 mm | - | - | - |
| 1777446315 | 6.67° C | 49% | 1040.6 hPa | 0 mm | - | - | - |
| 1777446015 | 6.67° C | 49% | 1046.9 hPa | 0 mm | - | - | - |
| 1777445715 | 6.67° C | 49% | 1053.2 hPa | 0 mm | - | - | - |
| 1777445415 | 7.22° C | 48% | 1059.5 hPa | 0 mm | - | - | - |
| 1777445115 | 7.78° C | 47% | 1062.7 hPa | 0 mm | - | - | - |
| 1777444815 | 8.33° C | 45% | 1068.9 hPa | 0 mm | - | - | - |
| 1777444754 | 8.89° C | 45% | 1053.2 hPa | 0 mm | - | - | - |
| 1777444515 | 9.44° C | 44% | 1065.8 hPa | 0 mm | - | - | - |
| 1777444215 | 10° C | 45% | 1065.8 hPa | 0 mm | - | - | - |
| 1777443915 | 10° C | 43% | 1072.1 hPa | 0 mm | - | - | - |
* Rain latest hour (hover to see other rain measurements)
** Current wind speed in m/s (hover to see current wind gust speed)